createdAt,value
2022-08-03T00:01:44.699Z,3.47
2022-08-03T00:04:12.806Z,2.90
2022-08-03T00:06:40.683Z,3.70
2022-08-03T00:09:10.415Z,3.10
2022-08-03T00:11:39.854Z,3.17
2022-08-03T00:14:08.795Z,2.87
2022-08-03T00:16:37.156Z,3.20
2022-08-03T00:19:05.152Z,3.30
2022-08-03T00:21:33.123Z,3.10
2022-08-03T00:24:01.583Z,3.63
2022-08-03T00:26:31.713Z,3.37
2022-08-03T00:28:59.574Z,2.90
2022-08-03T00:31:40.128Z,3.37
2022-08-03T00:34:15.319Z,3.50
2022-08-03T00:36:43.455Z,3.03
2022-08-03T00:39:11.277Z,2.93
2022-08-03T00:41:40.460Z,3.10
2022-08-03T00:44:08.286Z,3.40
2022-08-03T00:46:36.168Z,3.10
2022-08-03T00:49:04.195Z,3.10
2022-08-03T00:51:32.693Z,2.90
2022-08-03T00:54:00.538Z,2.70
2022-08-03T00:56:28.536Z,2.87
2022-08-03T00:58:58.931Z,2.80
2022-08-03T01:01:26.954Z,3.17
2022-08-03T01:04:00.472Z,3.00
2022-08-03T01:06:37.241Z,3.50
2022-08-03T01:09:13.480Z,2.73
2022-08-03T01:11:59.973Z,3.50
2022-08-03T01:14:46.881Z,3.30
2022-08-03T01:17:20.227Z,3.10
2022-08-03T01:19:54.854Z,3.03
2022-08-03T01:22:46.284Z,2.80
2022-08-03T01:25:25.857Z,3.23
2022-08-03T01:28:03.457Z,3.80
2022-08-03T01:30:34.759Z,4.10
2022-08-03T01:33:06.491Z,3.40
2022-08-03T01:35:40.053Z,3.13
2022-08-03T01:38:12.906Z,3.13
2022-08-03T01:40:42.456Z,3.10
2022-08-03T01:43:13.313Z,3.10
2022-08-03T01:45:45.084Z,2.77
2022-08-03T01:48:16.858Z,2.63
2022-08-03T01:50:46.064Z,3.50
2022-08-03T01:53:16.452Z,2.90
2022-08-03T01:55:45.324Z,3.40
2022-08-03T01:58:16.188Z,3.27
2022-08-03T02:00:47.861Z,3.07
2022-08-03T02:03:17.450Z,3.13
2022-08-03T02:05:46.874Z,2.53
2022-08-03T02:08:17.159Z,3.43
2022-08-03T02:10:47.033Z,3.03
2022-08-03T02:13:16.256Z,3.37
2022-08-03T02:15:45.886Z,3.60
2022-08-03T02:18:15.449Z,3.50
2022-08-03T02:20:45.454Z,3.20
2022-08-03T02:23:13.877Z,3.13
2022-08-03T02:25:46.868Z,3.27
2022-08-03T02:28:19.455Z,3.70
2022-08-03T02:30:55.646Z,4.20
2022-08-03T02:33:28.228Z,3.63
2022-08-03T02:35:58.217Z,3.20
2022-08-03T02:38:32.459Z,3.70
2022-08-03T02:41:01.329Z,3.97
2022-08-03T02:43:56.782Z,4.40
2022-08-03T02:46:21.895Z,3.70
2022-08-03T02:48:53.052Z,3.60
2022-08-03T02:51:22.022Z,4.10
2022-08-03T02:53:50.748Z,4.20
2022-08-03T02:56:21.114Z,4.13
2022-08-03T02:58:50.967Z,4.37
2022-08-03T03:01:21.589Z,3.70
2022-08-03T03:03:50.760Z,4.00
2022-08-03T03:06:19.929Z,3.60
2022-08-03T03:08:50.640Z,2.93
2022-08-03T03:11:20.731Z,3.73
2022-08-03T03:13:50.678Z,3.77
2022-08-03T03:16:21.898Z,3.10
2022-08-03T03:18:51.841Z,3.13
2022-08-03T03:21:21.980Z,3.20
2022-08-03T03:23:51.602Z,3.53
2022-08-03T03:26:19.790Z,3.40
2022-08-03T03:28:48.259Z,3.53
2022-08-03T03:31:16.356Z,3.87
2022-08-03T03:33:45.873Z,3.53
2022-08-03T03:36:13.831Z,3.57
2022-08-03T03:38:41.840Z,3.23
2022-08-03T03:41:10.882Z,4.33
2022-08-03T03:43:38.877Z,3.73
2022-08-03T03:46:07.158Z,3.60
2022-08-03T03:48:35.363Z,3.30
2022-08-03T03:51:05.032Z,4.10
2022-08-03T03:53:33.104Z,3.87
2022-08-03T03:56:02.593Z,3.87
2022-08-03T03:58:32.426Z,3.50
2022-08-03T04:01:00.589Z,3.33
2022-08-03T04:03:29.148Z,3.90
2022-08-03T04:06:15.443Z,4.40
2022-08-03T04:09:02.314Z,4.13
2022-08-03T04:11:35.818Z,4.10
2022-08-03T04:14:09.079Z,4.23
2022-08-03T04:16:43.631Z,4.03
2022-08-03T04:19:18.459Z,4.40
2022-08-03T04:21:52.933Z,4.20
2022-08-03T04:24:23.074Z,4.30
2022-08-03T04:26:56.155Z,4.80
2022-08-03T04:29:27.063Z,5.27
2022-08-03T04:31:55.666Z,4.78
2022-08-03T04:34:23.789Z,4.63
2022-08-03T04:36:59.015Z,4.13
2022-08-03T04:39:30.895Z,5.18
2022-08-03T04:42:07.569Z,4.60
2022-08-03T04:44:40.402Z,4.47
2022-08-03T04:47:08.969Z,5.90
2022-08-03T04:49:37.986Z,6.43
2022-08-03T04:52:08.323Z,6.30
2022-08-03T04:54:50.352Z,6.00
2022-08-03T04:57:23.296Z,5.47
2022-08-03T05:00:02.722Z,5.13
2022-08-03T05:02:32.284Z,4.72
2022-08-03T05:05:00.920Z,5.00
2022-08-03T05:07:34.083Z,4.43
2022-08-03T05:10:15.211Z,4.65
2022-08-03T05:12:45.603Z,4.30
2022-08-03T05:15:14.312Z,4.80
2022-08-03T05:17:42.775Z,5.18
2022-08-03T05:20:12.030Z,5.05
2022-08-03T05:22:40.066Z,4.88
2022-08-03T05:25:19.895Z,4.63
2022-08-03T05:27:52.522Z,5.38
2022-08-03T05:30:29.829Z,5.05
2022-08-03T05:33:03.205Z,5.35
2022-08-03T05:35:57.475Z,4.85
2022-08-03T05:38:23.959Z,5.45
2022-08-03T05:41:20.348Z,4.72
2022-08-03T05:43:46.358Z,4.50
2022-08-03T05:46:14.817Z,4.80
2022-08-03T05:48:42.972Z,4.50
2022-08-03T05:51:12.547Z,4.40
2022-08-03T05:53:41.333Z,4.93
2022-08-03T05:56:13.583Z,4.75
2022-08-03T05:58:44.099Z,4.85
2022-08-03T06:01:12.113Z,4.82
2022-08-03T06:03:40.097Z,5.20
2022-08-03T06:06:08.093Z,4.75
2022-08-03T06:08:38.607Z,3.60
2022-08-03T06:11:06.569Z,4.45
2022-08-03T06:13:35.919Z,4.43
2022-08-03T06:16:04.485Z,4.10
2022-08-03T06:18:32.384Z,5.03
2022-08-03T06:21:14.111Z,4.43
2022-08-03T06:23:55.174Z,4.32
2022-08-03T06:26:25.299Z,3.90
2022-08-03T06:28:55.136Z,4.18
2022-08-03T06:31:26.118Z,4.28
2022-08-03T06:34:33.748Z,3.78
2022-08-03T06:36:52.248Z,4.10
2022-08-03T06:39:20.887Z,4.00
2022-08-03T06:41:52.604Z,3.95
2022-08-03T06:44:22.818Z,4.18
2022-08-03T06:46:51.817Z,3.92
2022-08-03T06:49:20.043Z,4.20
2022-08-03T06:52:06.107Z,4.05
2022-08-03T06:54:36.042Z,4.13
2022-08-03T06:57:04.707Z,3.80
2022-08-03T07:00:09.730Z,4.15
2022-08-03T07:02:22.005Z,4.07
2022-08-03T07:04:50.099Z,3.70
2022-08-03T07:07:19.318Z,4.05
2022-08-03T07:09:57.735Z,3.65
2022-08-03T07:12:26.707Z,3.70
2022-08-03T07:15:00.901Z,4.15
2022-08-03T07:17:31.360Z,4.07
2022-08-03T07:20:00.545Z,3.72
2022-08-03T07:22:28.708Z,3.72
2022-08-03T07:24:57.661Z,3.20
2022-08-03T07:27:28.597Z,3.95
2022-08-03T07:29:59.353Z,5.13
2022-08-03T07:32:28.524Z,2.92
2022-08-03T07:35:00.554Z,3.47
2022-08-03T07:37:29.767Z,3.75
2022-08-03T07:39:58.212Z,3.38
2022-08-03T07:42:26.241Z,3.53
2022-08-03T07:44:54.148Z,3.65
2022-08-03T07:47:26.051Z,3.10
2022-08-03T07:50:04.305Z,3.47
2022-08-03T07:52:51.812Z,3.70
2022-08-03T07:55:21.162Z,3.17
2022-08-03T07:57:49.475Z,3.70
2022-08-03T08:00:19.795Z,3.05
2022-08-03T08:02:49.141Z,3.00
2022-08-03T08:05:17.118Z,3.30
2022-08-03T08:07:51.058Z,2.95
2022-08-03T08:10:20.414Z,3.78
2022-08-03T08:12:48.620Z,2.63
2022-08-03T08:15:16.963Z,2.65
2022-08-03T08:17:47.233Z,2.60
2022-08-03T08:20:28.115Z,2.90
2022-08-03T08:23:01.352Z,3.88
2022-08-03T08:25:30.188Z,2.72
2022-08-03T08:28:31.260Z,2.97
2022-08-03T08:30:49.968Z,2.92
2022-08-03T08:33:22.593Z,2.83
2022-08-03T08:35:54.059Z,3.10
2022-08-03T08:38:22.514Z,4.10
2022-08-03T08:40:50.868Z,3.00
2022-08-03T08:43:18.918Z,3.20
2022-08-03T08:45:48.444Z,3.60
2022-08-03T08:48:16.792Z,2.60
2022-08-03T08:50:47.881Z,3.70
2022-08-03T08:53:19.828Z,3.17
2022-08-03T08:55:58.077Z,2.90
2022-08-03T08:58:31.537Z,3.33
2022-08-03T09:01:01.822Z,3.80
2022-08-03T09:03:31.066Z,2.90
2022-08-03T09:06:02.077Z,2.90
2022-08-03T09:08:32.784Z,2.90
2022-08-03T09:11:01.147Z,3.47
2022-08-03T09:13:32.953Z,3.55
2022-08-03T09:16:15.788Z,3.78
2022-08-03T09:18:47.486Z,3.17
2022-08-03T09:21:32.905Z,3.20
2022-08-03T09:24:08.399Z,3.20
2022-08-03T09:26:41.759Z,2.90
2022-08-03T09:29:14.995Z,2.92
2022-08-03T09:31:45.586Z,3.28
2022-08-03T09:34:15.802Z,2.85
2022-08-03T09:36:45.848Z,2.67
2022-08-03T09:39:16.890Z,2.92
2022-08-03T09:41:46.512Z,2.72
2022-08-03T09:44:24.314Z,2.72
2022-08-03T09:46:56.335Z,3.03
2022-08-03T09:49:25.349Z,3.13
2022-08-03T09:52:37.909Z,2.50
2022-08-03T09:54:44.389Z,2.72
2022-08-03T09:57:23.869Z,2.60
2022-08-03T10:00:03.147Z,2.65
2022-08-03T10:02:33.508Z,2.30
2022-08-03T10:05:06.228Z,2.47
2022-08-03T10:07:45.836Z,2.75
2022-08-03T10:10:31.054Z,3.08
2022-08-03T10:13:01.141Z,2.45
2022-08-03T10:16:22.766Z,2.22
2022-08-03T10:18:17.537Z,2.38
2022-08-03T10:20:50.218Z,2.00
2022-08-03T10:23:19.616Z,2.17
2022-08-03T10:25:59.195Z,2.00
2022-08-03T10:28:29.916Z,1.92
2022-08-03T10:30:58.120Z,1.55
2022-08-03T10:33:51.745Z,2.05
2022-08-03T10:36:18.795Z,1.95
2022-08-03T10:38:55.153Z,2.17
2022-08-03T10:41:27.195Z,2.80
2022-08-03T10:43:59.860Z,2.10
2022-08-03T10:46:29.565Z,1.98
2022-08-03T10:48:58.177Z,2.10
2022-08-03T10:51:30.512Z,1.80
2022-08-03T10:53:58.610Z,1.70
2022-08-03T10:57:09.521Z,2.00
2022-08-03T11:00:00.471Z,1.90
2022-08-03T11:03:04.098Z,1.40
2022-08-03T11:05:33.902Z,1.95
2022-08-03T11:08:29.536Z,1.90
2022-08-03T11:11:01.148Z,1.42
2022-08-03T11:13:34.075Z,1.60
2022-08-03T11:16:21.829Z,1.60
2022-08-03T11:18:58.930Z,1.50
2022-08-03T11:21:55.790Z,1.80
2022-08-03T11:24:58.368Z,1.60
2022-08-03T11:27:31.045Z,1.50
2022-08-03T11:30:03.581Z,1.52
2022-08-03T11:32:56.210Z,1.60
2022-08-03T11:35:26.431Z,1.63
2022-08-03T11:38:08.485Z,1.63
2022-08-03T11:40:39.751Z,1.50
2022-08-03T11:43:09.540Z,1.13
2022-08-03T11:45:39.562Z,1.60
2022-08-03T11:48:16.845Z,1.83
2022-08-03T11:50:46.413Z,1.50
2022-08-03T11:53:17.247Z,1.30
2022-08-03T11:55:48.837Z,1.58
2022-08-03T11:59:19.012Z,1.35
2022-08-03T12:01:13.562Z,1.20
2022-08-03T12:03:41.539Z,1.60
2022-08-03T12:06:11.905Z,1.75
2022-08-03T12:08:40.706Z,1.67
2022-08-03T12:11:10.649Z,1.30
2022-08-03T12:14:45.643Z,1.58
2022-08-03T12:16:30.630Z,1.55
2022-08-03T12:19:00.947Z,1.40
2022-08-03T12:21:30.208Z,1.65
2022-08-03T12:24:00.292Z,1.23
2022-08-03T12:26:44.958Z,1.42
2022-08-03T12:29:27.112Z,1.70
2022-08-03T12:31:56.612Z,1.63
2022-08-03T12:34:24.938Z,1.50
2022-08-03T12:36:59.683Z,1.80
2022-08-03T12:39:30.926Z,1.80
2022-08-03T12:41:59.454Z,1.52
2022-08-03T12:44:32.233Z,1.60
2022-08-03T12:47:02.506Z,1.55
2022-08-03T12:49:45.693Z,1.55
2022-08-03T12:52:13.944Z,1.52
2022-08-03T12:54:42.460Z,1.75
2022-08-03T12:57:16.057Z,1.48
2022-08-03T12:59:53.163Z,1.60
2022-08-03T13:02:24.407Z,1.52
2022-08-03T13:04:53.744Z,1.73
2022-08-03T13:07:23.363Z,1.90
2022-08-03T13:09:53.255Z,1.52
2022-08-03T13:12:23.476Z,1.65
2022-08-03T13:14:53.604Z,2.25
2022-08-03T13:17:23.015Z,1.40
2022-08-03T13:19:52.104Z,1.10
2022-08-03T13:22:22.411Z,1.45
2022-08-03T13:24:52.286Z,1.58
2022-08-03T13:28:11.074Z,1.45
2022-08-03T13:30:10.486Z,1.48
2022-08-03T13:32:39.949Z,1.40
2022-08-03T13:35:09.098Z,1.30
2022-08-03T13:37:37.851Z,1.48
2022-08-03T13:40:08.212Z,1.40
2022-08-03T13:42:39.869Z,2.05
2022-08-03T13:45:09.239Z,1.50
2022-08-03T13:47:37.858Z,1.30
2022-08-03T13:50:07.765Z,1.50
2022-08-03T13:52:37.217Z,1.30
2022-08-03T13:55:07.079Z,1.20
2022-08-03T13:58:04.434Z,1.65
2022-08-03T14:00:27.874Z,1.75
2022-08-03T14:03:04.004Z,1.67
2022-08-03T14:05:38.325Z,1.60
2022-08-03T14:08:07.776Z,1.60
2022-08-03T14:10:37.270Z,1.50
2022-08-03T14:13:05.773Z,1.35
2022-08-03T14:15:51.357Z,1.52
2022-08-03T14:18:27.666Z,1.50
2022-08-03T14:21:01.910Z,1.50
2022-08-03T14:23:33.107Z,1.42
2022-08-03T14:26:01.162Z,1.33
2022-08-03T14:28:29.189Z,1.55
2022-08-03T14:30:57.156Z,1.40
2022-08-03T14:33:25.110Z,1.27
2022-08-03T14:35:53.633Z,1.23
2022-08-03T14:38:23.578Z,1.67
2022-08-03T14:40:53.086Z,1.60
2022-08-03T14:43:21.359Z,1.35
2022-08-03T14:45:52.097Z,1.20
2022-08-03T14:50:12.592Z,1.10
2022-08-03T14:51:08.572Z,1.60
2022-08-03T14:53:37.806Z,1.40
2022-08-03T14:56:10.001Z,2.25
2022-08-03T14:58:38.815Z,1.27
2022-08-03T15:02:04.438Z,1.35
2022-08-03T15:03:55.697Z,1.50
2022-08-03T15:06:23.587Z,1.55
2022-08-03T15:09:13.845Z,1.50
2022-08-03T15:11:41.112Z,1.65
2022-08-03T15:14:09.659Z,1.48
2022-08-03T15:16:38.138Z,1.23
2022-08-03T15:20:01.317Z,2.20
2022-08-03T15:21:54.482Z,1.55
2022-08-03T15:24:23.764Z,1.35
2022-08-03T15:26:52.338Z,1.45
2022-08-03T15:30:07.193Z,1.88
2022-08-03T15:32:09.542Z,1.58
2022-08-03T15:34:37.949Z,1.40
2022-08-03T15:37:16.549Z,1.83
2022-08-03T15:39:58.844Z,1.85
2022-08-03T15:42:29.200Z,1.40
2022-08-03T15:44:57.210Z,1.30
2022-08-03T15:47:25.139Z,1.60
2022-08-03T15:49:53.522Z,1.60
2022-08-03T15:52:21.915Z,1.67
2022-08-03T15:54:51.527Z,1.42
2022-08-03T15:57:19.949Z,1.63
2022-08-03T15:59:48.349Z,1.20
2022-08-03T16:02:16.857Z,1.45
2022-08-03T16:04:44.862Z,1.50
2022-08-03T16:07:14.358Z,1.55
2022-08-03T16:09:43.893Z,1.50
2022-08-03T16:12:16.229Z,1.65
2022-08-03T16:14:52.377Z,2.65
2022-08-03T16:17:22.282Z,1.42
2022-08-03T16:19:50.802Z,2.28
2022-08-03T16:22:22.155Z,1.98
2022-08-03T16:24:51.044Z,1.40
2022-08-03T16:27:56.864Z,1.42
2022-08-03T16:30:11.453Z,1.30
2022-08-03T16:32:39.920Z,1.70
2022-08-03T16:35:09.076Z,1.50
2022-08-03T16:37:54.625Z,1.10
2022-08-03T16:40:25.597Z,1.40
2022-08-03T16:42:54.927Z,1.33
2022-08-03T16:45:22.925Z,1.27
2022-08-03T16:48:05.383Z,1.58
2022-08-03T16:50:34.521Z,1.27
2022-08-03T16:53:03.635Z,1.60
2022-08-03T16:55:48.837Z,1.35
2022-08-03T16:58:24.425Z,1.30
2022-08-03T17:01:22.553Z,1.50
2022-08-03T17:04:01.237Z,1.80
2022-08-03T17:06:35.153Z,1.80
2022-08-03T17:09:09.266Z,2.42
2022-08-03T17:11:46.400Z,1.40
2022-08-03T17:14:22.130Z,1.90
2022-08-03T17:16:53.922Z,1.50
2022-08-03T17:19:24.924Z,1.92
2022-08-03T17:21:58.202Z,2.05
2022-08-03T17:24:32.104Z,1.67
2022-08-03T17:27:03.755Z,1.92
2022-08-03T17:29:44.915Z,1.25
2022-08-03T17:32:18.352Z,1.90
2022-08-03T17:34:50.189Z,1.73
2022-08-03T17:37:49.962Z,1.80
2022-08-03T17:40:11.787Z,1.83
2022-08-03T17:42:46.202Z,1.77
2022-08-03T17:45:21.563Z,1.83
2022-08-03T17:47:57.811Z,2.33
2022-08-03T17:50:33.762Z,2.30
2022-08-03T17:53:15.500Z,1.77
2022-08-03T17:55:59.639Z,1.30
2022-08-03T17:58:55.052Z,1.35
2022-08-03T18:02:06.072Z,1.25
2022-08-03T18:04:37.298Z,1.88
2022-08-03T18:07:12.890Z,2.17
2022-08-03T18:10:06.363Z,1.80
2022-08-03T18:12:52.212Z,2.90
2022-08-03T18:15:26.250Z,3.30
2022-08-03T18:18:02.845Z,2.60
2022-08-03T18:20:41.155Z,2.10
2022-08-03T18:23:25.367Z,1.45
2022-08-03T18:26:01.973Z,1.70
2022-08-03T18:28:30.879Z,1.60
2022-08-03T18:30:59.148Z,1.95
2022-08-03T18:34:18.526Z,1.70
2022-08-03T18:36:22.094Z,1.80
2022-08-03T18:39:00.200Z,3.50
2022-08-03T18:41:32.818Z,2.90
2022-08-03T18:44:06.436Z,2.55
2022-08-03T18:46:43.062Z,2.70
2022-08-03T18:49:22.825Z,2.10
2022-08-03T18:51:59.511Z,2.10
2022-08-03T18:54:51.018Z,2.78
2022-08-03T18:57:30.078Z,3.08
2022-08-03T19:00:06.822Z,2.38
2022-08-03T19:02:48.810Z,2.60
2022-08-03T19:05:21.524Z,1.80
2022-08-03T19:07:59.797Z,2.22
2022-08-03T19:10:32.129Z,2.30
2022-08-03T19:13:04.913Z,1.50
2022-08-03T19:15:51.555Z,2.30
2022-08-03T19:18:21.997Z,2.20
2022-08-03T19:20:55.880Z,2.45
2022-08-03T19:23:25.763Z,2.05
2022-08-03T19:25:53.836Z,2.30
2022-08-03T19:28:29.617Z,1.90
2022-08-03T19:31:02.637Z,2.30
2022-08-03T19:33:55.953Z,2.00
2022-08-03T19:36:27.504Z,1.75
2022-08-03T19:38:57.002Z,2.30
2022-08-03T19:41:26.124Z,2.05
2022-08-03T19:44:01.077Z,1.75
2022-08-03T19:46:37.612Z,1.70
2022-08-03T19:49:15.353Z,2.13
2022-08-03T19:51:58.554Z,1.95
2022-08-03T19:54:45.472Z,2.20
2022-08-03T19:57:19.290Z,1.77
2022-08-03T19:59:50.691Z,2.35
2022-08-03T20:02:26.695Z,2.13
2022-08-03T20:04:57.340Z,2.30
2022-08-03T20:07:28.065Z,2.25
2022-08-03T20:09:57.055Z,2.47
2022-08-03T20:12:27.888Z,2.70
2022-08-03T20:14:57.529Z,2.25
2022-08-03T20:17:55.501Z,1.95
2022-08-03T20:20:14.612Z,2.00
2022-08-03T20:25:25.861Z,2.03
2022-08-03T20:28:14.113Z,1.90
2022-08-03T20:30:46.345Z,2.17
2022-08-03T20:33:18.754Z,1.98
2022-08-03T20:35:49.320Z,2.15
2022-08-03T20:38:19.591Z,1.70
2022-08-03T20:40:48.630Z,1.80
2022-08-03T20:43:16.647Z,1.92
2022-08-03T20:46:00.142Z,1.98
2022-08-03T20:48:37.065Z,1.50
2022-08-03T20:51:20.023Z,1.65
2022-08-03T20:54:00.162Z,1.60
2022-08-03T20:59:21.572Z,1.38
2022-08-03T21:01:49.587Z,1.60
2022-08-03T21:04:20.874Z,1.67
2022-08-03T21:06:53.152Z,1.50
2022-08-03T21:09:39.880Z,1.80
2022-08-03T21:12:13.127Z,1.42
2022-08-03T21:13:14.022Z,1.63
2022-08-03T21:14:51.892Z,1.70
2022-08-03T21:17:39.989Z,1.48
2022-08-03T21:20:11.431Z,1.85
2022-08-03T21:22:40.782Z,1.65
2022-08-03T21:25:11.461Z,2.20
2022-08-03T21:27:39.757Z,1.70
2022-08-03T21:30:09.972Z,2.13
2022-08-03T21:32:40.683Z,2.30
2022-08-03T21:35:11.170Z,2.30
2022-08-03T21:37:39.826Z,1.98
2022-08-03T21:40:12.135Z,2.05
2022-08-03T21:42:41.390Z,1.90
2022-08-03T21:45:16.590Z,1.80
2022-08-03T21:47:47.161Z,1.92
2022-08-03T21:50:15.208Z,1.75
2022-08-03T21:52:45.546Z,1.67
2022-08-03T21:55:20.315Z,1.90
2022-08-03T21:57:57.574Z,1.75
2022-08-03T22:00:25.616Z,2.03
2022-08-03T22:02:56.187Z,1.90
2022-08-03T22:05:28.874Z,2.10
2022-08-03T22:07:57.389Z,1.85
2022-08-03T22:10:28.791Z,1.80
2022-08-03T22:12:56.872Z,1.60
2022-08-03T22:15:26.098Z,2.15
2022-08-03T22:17:57.458Z,1.83
2022-08-03T22:20:26.296Z,2.00
2022-08-03T22:22:56.950Z,1.77
2022-08-03T22:25:31.000Z,1.90
2022-08-03T22:28:01.260Z,2.38
2022-08-03T22:30:31.790Z,1.88
2022-08-03T22:33:02.173Z,1.60
2022-08-03T22:35:47.927Z,2.35
2022-08-03T22:38:17.056Z,1.90
2022-08-03T22:40:48.497Z,1.58
2022-08-03T22:43:17.132Z,2.20
2022-08-03T22:46:10.274Z,1.80
2022-08-03T22:48:35.321Z,1.98
2022-08-03T22:51:08.897Z,2.05
2022-08-03T22:53:37.531Z,1.80
2022-08-03T22:56:07.757Z,1.92
2022-08-03T22:58:35.752Z,2.30
2022-08-03T23:01:08.897Z,1.83
2022-08-03T23:04:00.924Z,2.28
2022-08-03T23:06:33.832Z,1.80
2022-08-03T23:09:03.950Z,1.67
2022-08-03T23:11:36.562Z,2.08
2022-08-03T23:14:11.423Z,2.00
2022-08-03T23:16:40.559Z,1.98
2022-08-03T23:19:16.565Z,1.83
2022-08-03T23:21:59.962Z,2.08
2022-08-03T23:24:31.232Z,2.05
2022-08-03T23:27:03.182Z,2.10
2022-08-03T23:29:32.300Z,2.40
2022-08-03T23:32:02.624Z,2.40
2022-08-03T23:34:50.644Z,1.95
2022-08-03T23:37:20.134Z,2.05
2022-08-03T23:39:49.436Z,1.92
2022-08-03T23:42:20.196Z,2.00
2022-08-03T23:44:53.189Z,1.70
2022-08-03T23:47:21.348Z,1.80
2022-08-03T23:49:49.789Z,1.70
2022-08-03T23:52:26.308Z,1.83
2022-08-03T23:55:05.059Z,2.25
2022-08-03T23:57:45.295Z,1.90
